Time;durP1;ratioP1;P1;durP2;ratioP2;P2;SDS_P1;SDS_P2;PMS_P1;PMS_P2;Temp;Humidity;BMP_temperature;BMP_pressure;BME280_temperature;BME280_humidity;BME280_pressure;Samples;Min_cycle;Max_cycle;Signal;HPM_P1;HPM_P2
2022/08/17 00:00:44;;;;;;;8.93;3.90;;;22.30;96.00;;;;;;4954393;28;20031;-54
2022/08/17 00:03:34;;;;;;;5.97;4.32;;;22.30;96.20;;;;;;4953832;28;20094;-51
2022/08/17 00:06:13;;;;;;;4.50;4.10;;;22.20;96.60;;;;;;4947356;28;20091;-51
2022/08/17 00:08:40;;;;;;;5.35;4.30;;;22.20;96.80;;;;;;4954448;28;20024;-49
2022/08/17 00:11:11;;;;;;;4.25;3.83;;;22.10;96.90;;;;;;4954167;29;20560;-49
2022/08/17 00:13:41;;;;;;;5.47;3.97;;;22.00;97.10;;;;;;4952636;28;20031;-48
2022/08/17 00:16:11;;;;;;;5.18;4.70;;;21.90;97.70;;;;;;4954051;28;20409;-47
2022/08/17 00:18:37;;;;;;;7.40;4.55;;;21.80;97.50;;;;;;4954518;28;20313;-47
2022/08/17 00:21:05;;;;;;;5.03;3.88;;;21.80;97.70;;;;;;4954187;28;20027;-50
2022/08/17 00:23:31;;;;;;;6.63;4.15;;;21.70;98.00;;;;;;4953944;28;20086;-48
2022/08/17 00:25:57;;;;;;;5.68;3.78;;;21.70;98.10;;;;;;4952827;29;20670;-47
2022/08/17 00:28:23;;;;;;;5.05;4.03;;;21.70;98.30;;;;;;4954244;29;20071;-47
2022/08/17 00:30:49;;;;;;;5.80;3.78;;;21.70;98.50;;;;;;4953948;28;20027;-47
2022/08/17 00:33:20;;;;;;;6.22;4.53;;;21.70;98.50;;;;;;4953438;28;20031;-47
2022/08/17 00:35:47;;;;;;;6.80;4.85;;;21.70;98.40;;;;;;4953826;28;20027;-47
2022/08/17 00:38:13;;;;;;;7.53;4.20;;;21.70;98.40;;;;;;4953668;28;20030;-47
2022/08/17 00:40:40;;;;;;;5.88;4.18;;;21.60;98.40;;;;;;4953764;28;20023;-49
2022/08/17 00:43:14;;;;;;;4.63;4.18;;;21.60;98.60;;;;;;4953247;28;20042;-49
2022/08/17 00:45:41;;;;;;;6.20;4.30;;;21.60;98.70;;;;;;4953788;28;20522;-52
2022/08/17 00:48:06;;;;;;;6.90;4.00;;;21.50;98.80;;;;;;4953626;28;20086;-48
2022/08/17 00:50:33;;;;;;;4.90;4.30;;;21.60;98.80;;;;;;4953617;28;20043;-46
2022/08/17 00:52:59;;;;;;;9.85;4.72;;;21.60;98.90;;;;;;4953098;28;20035;-52
2022/08/17 00:55:25;;;;;;;8.07;4.75;;;21.50;99.00;;;;;;4952335;29;20445;-49
2022/08/17 00:57:55;;;;;;;6.57;4.30;;;21.40;99.20;;;;;;4952265;29;20035;-47
2022/08/17 01:00:25;;;;;;;8.82;4.32;;;21.30;99.30;;;;;;4953527;28;20469;-49
2022/08/17 01:02:57;;;;;;;5.82;4.53;;;21.30;99.60;;;;;;4953027;28;20023;-46
2022/08/17 01:05:26;;;;;;;5.95;4.85;;;21.20;99.80;;;;;;4952634;29;20618;-48
2022/08/17 01:07:53;;;;;;;12.35;4.38;;;21.20;99.90;;;;;;4953380;28;20094;-48
2022/08/17 01:10:22;;;;;;;12.95;8.77;;;21.20;99.90;;;;;;4953523;28;20135;-48
2022/08/17 01:12:48;;;;;;;6.63;4.47;;;21.10;99.90;;;;;;4952921;28;20035;-46
2022/08/17 01:15:15;;;;;;;7.13;4.80;;;21.10;99.90;;;;;;4953215;29;20039;-48
2022/08/17 01:17:40;;;;;;;4.80;4.40;;;21.10;99.90;;;;;;4953474;28;20031;-47
2022/08/17 01:20:06;;;;;;;5.85;4.63;;;21.10;99.90;;;;;;4953427;28;20079;-49
2022/08/17 01:22:32;;;;;;;7.85;5.15;;;21.00;99.90;;;;;;4953240;29;20027;-47
2022/08/17 01:25:01;;;;;;;8.45;5.03;;;21.00;99.90;;;;;;4953291;28;20125;-46
2022/08/17 01:27:28;;;;;;;7.80;4.90;;;21.00;99.90;;;;;;4953230;28;20028;-52
2022/08/17 01:29:57;;;;;;;5.25;4.80;;;21.10;99.90;;;;;;4953279;28;20035;-49
2022/08/17 01:32:25;;;;;;;10.50;5.65;;;21.00;99.90;;;;;;4952786;28;20032;-52
2022/08/17 01:34:52;;;;;;;8.40;5.38;;;21.00;99.90;;;;;;4953443;28;20392;-48
2022/08/17 01:37:26;;;;;;;8.80;6.03;;;21.00;99.90;;;;;;4952930;28;20031;-52
2022/08/17 01:39:58;;;;;;;5.35;4.95;;;20.90;99.90;;;;;;4953480;28;20366;-52
2022/08/17 01:42:43;;;;;;;7.30;4.90;;;20.80;99.90;;;;;;4952897;28;20541;-47
2022/08/17 01:45:17;;;;;;;6.50;5.20;;;20.80;99.90;;;;;;4953121;28;20070;-49
2022/08/17 01:47:43;;;;;;;9.32;5.30;;;20.80;99.90;;;;;;4953205;28;20054;-49
2022/08/17 01:50:14;;;;;;;6.00;4.75;;;20.70;99.90;;;;;;4953420;28;20438;-47
2022/08/17 01:52:41;;;;;;;7.13;5.60;;;20.70;99.90;;;;;;4952589;28;20162;-48
2022/08/17 01:55:09;;;;;;;10.50;5.70;;;20.70;99.90;;;;;;4953010;28;20033;-47
2022/08/17 01:57:35;;;;;;;8.23;5.80;;;20.70;99.90;;;;;;4953032;28;20162;-49
2022/08/17 02:00:00;;;;;;;10.10;5.65;;;20.70;99.90;;;;;;4952934;28;20030;-50
2022/08/17 02:02:26;;;;;;;11.10;6.13;;;20.60;99.90;;;;;;4952565;29;20023;-50
2022/08/17 02:04:52;;;;;;;5.80;5.30;;;20.70;99.90;;;;;;4953352;28;20492;-47
2022/08/17 02:07:17;;;;;;;7.38;5.70;;;20.60;99.90;;;;;;4952888;29;20165;-48
2022/08/17 02:09:43;;;;;;;5.90;5.07;;;20.60;99.90;;;;;;4953148;28;20098;-50
2022/08/17 02:12:09;;;;;;;7.28;5.03;;;20.60;99.90;;;;;;4952475;29;20039;-51
2022/08/17 02:14:34;;;;;;;5.18;4.68;;;20.60;99.90;;;;;;4952743;28;20501;-47
2022/08/17 02:17:00;;;;;;;6.55;5.95;;;20.60;99.90;;;;;;4952841;29;20027;-49
2022/08/17 02:19:25;;;;;;;6.55;5.05;;;20.50;99.90;;;;;;4954798;28;20023;-51
2022/08/17 02:21:52;;;;;;;8.25;5.43;;;20.50;99.90;;;;;;4955980;29;20110;-50
2022/08/17 02:24:25;;;;;;;5.68;5.18;;;20.50;99.90;;;;;;4955972;28;20035;-47
2022/08/17 02:26:51;;;;;;;7.78;5.05;;;20.50;99.90;;;;;;4956307;28;20024;-46
2022/08/17 02:29:17;;;;;;;6.55;5.97;;;20.40;99.90;;;;;;4955605;29;20027;-51
2022/08/17 02:31:42;;;;;;;7.18;5.18;;;20.40;99.90;;;;;;4955928;28;20082;-49
2022/08/17 02:34:08;;;;;;;5.85;5.25;;;20.40;99.90;;;;;;4955713;28;20023;-47
2022/08/17 02:36:35;;;;;;;8.10;5.47;;;20.40;99.90;;;;;;4955949;28;20035;-50
2022/08/17 02:39:09;;;;;;;7.07;6.30;;;20.40;99.90;;;;;;4956045;28;20098;-47
2022/08/17 02:41:36;;;;;;;10.45;5.80;;;20.40;99.90;;;;;;4955849;29;20401;-49
2022/08/17 02:44:02;;;;;;;8.27;5.80;;;20.30;99.90;;;;;;4955417;28;20039;-48
2022/08/17 02:46:27;;;;;;;5.90;5.03;;;20.20;99.90;;;;;;4955818;28;20114;-47
2022/08/17 02:48:53;;;;;;;7.90;5.55;;;20.20;99.90;;;;;;4955949;28;20027;-48
2022/08/17 02:51:18;;;;;;;5.60;5.05;;;20.20;99.90;;;;;;4955905;29;20031;-50
2022/08/17 02:53:45;;;;;;;10.40;5.85;;;20.20;99.90;;;;;;4955389;28;20032;-50
2022/08/17 02:56:11;;;;;;;8.77;6.25;;;20.20;99.90;;;;;;4955648;28;20023;-51
2022/08/17 02:58:36;;;;;;;6.80;5.53;;;20.10;99.90;;;;;;4955511;29;20042;-47
2022/08/17 03:01:08;;;;;;;6.55;5.60;;;20.10;99.90;;;;;;4955545;29;20024;-46
2022/08/17 03:03:34;;;;;;;7.35;5.57;;;20.00;99.90;;;;;;4955019;28;20024;-47
2022/08/17 03:06:00;;;;;;;8.98;5.65;;;20.00;99.90;;;;;;4955636;28;20031;-48
2022/08/17 03:08:26;;;;;;;8.68;6.68;;;20.00;99.90;;;;;;4955316;29;20515;-49
2022/08/17 03:10:52;;;;;;;8.30;6.15;;;20.00;99.90;;;;;;4955286;29;20097;-49
2022/08/17 03:13:17;;;;;;;9.50;5.85;;;19.90;99.90;;;;;;4954836;28;20030;-50
2022/08/17 03:15:45;;;;;;;9.23;6.47;;;20.00;99.90;;;;;;4955264;29;20031;-47
2022/08/17 03:18:13;;;;;;;7.03;6.32;;;20.00;99.90;;;;;;4955245;28;20023;-51
2022/08/17 03:20:39;;;;;;;7.78;5.75;;;20.00;99.90;;;;;;4955222;28;20027;-48
2022/08/17 03:23:06;;;;;;;7.07;6.38;;;20.00;99.90;;;;;;4954682;28;20031;-48
2022/08/17 03:25:35;;;;;;;7.78;6.75;;;20.10;99.90;;;;;;4955085;28;20102;-47
2022/08/17 03:28:01;;;;;;;7.57;6.10;;;20.00;99.90;;;;;;4955018;28;20516;-50
2022/08/17 03:30:28;;;;;;;10.43;6.55;;;19.90;99.90;;;;;;4954673;28;20034;-48
2022/08/17 03:32:57;;;;;;;8.18;7.22;;;19.80;99.90;;;;;;4954567;28;20042;-49
2022/08/17 03:35:26;;;;;;;6.97;6.32;;;19.80;99.90;;;;;;4954916;28;20027;-47
2022/08/17 03:37:54;;;;;;;8.73;6.28;;;19.80;99.90;;;;;;4954953;28;20071;-46
2022/08/17 03:40:20;;;;;;;8.10;6.10;;;19.80;99.90;;;;;;4954916;28;20489;-49
2022/08/17 03:42:46;;;;;;;10.13;6.45;;;19.80;99.90;;;;;;4954440;28;20063;-52
2022/08/17 03:45:14;;;;;;;6.35;5.85;;;19.80;99.90;;;;;;4954590;28;20109;-49
2022/08/17 03:58:49;;;;;;;7.95;5.90;;;19.80;99.90;;;;;;4954403;29;20515;-49
2022/08/17 04:01:16;;;;;;;8.48;6.85;;;19.80;99.90;;;;;;4954371;28;20039;-49
2022/08/17 04:03:42;;;;;;;7.57;6.88;;;19.80;99.90;;;;;;4954193;28;20019;-48
2022/08/17 04:06:07;;;;;;;6.72;5.80;;;19.80;99.90;;;;;;4954569;29;20090;-48
2022/08/17 04:08:34;;;;;;;6.75;6.15;;;19.80;99.90;;;;;;4954733;29;20024;-48
2022/08/17 04:11:00;;;;;;;10.65;6.53;;;19.70;99.90;;;;;;4954214;28;20114;-51
2022/08/17 04:13:26;;;;;;;6.55;6.03;;;19.80;99.90;;;;;;4952629;28;20106;-49
2022/08/17 04:15:52;;;;;;;7.25;6.18;;;19.80;99.90;;;;;;4954196;29;20031;-50
2022/08/17 04:18:18;;;;;;;10.88;6.47;;;19.70;99.90;;;;;;4954119;28;20066;-49
2022/08/17 04:20:44;;;;;;;7.72;6.38;;;19.70;99.90;;;;;;4954065;29;20055;-48
2022/08/17 04:23:19;;;;;;;12.80;6.78;;;19.70;99.90;;;;;;4953937;28;20043;-49
2022/08/17 04:25:49;;;;;;;7.45;6.03;;;19.70;99.90;;;;;;4954079;28;20037;-48
2022/08/17 04:28:17;;;;;;;8.02;6.55;;;19.70;99.90;;;;;;4954205;28;20110;-51
2022/08/17 04:30:44;;;;;;;6.90;6.30;;;19.70;99.90;;;;;;4953514;28;20027;-53
2022/08/17 04:33:13;;;;;;;6.82;6.22;;;19.60;99.90;;;;;;4953461;28;20505;-49
2022/08/17 04:35:49;;;;;;;7.63;6.93;;;19.60;99.90;;;;;;4953750;28;20558;-49
2022/08/17 04:38:18;;;;;;;13.50;6.75;;;19.60;99.90;;;;;;4954054;28;20424;-48
2022/08/17 04:43:30;;;;;;;7.77;6.33;;;19.60;99.90;;;;;;4953713;28;20031;-48
2022/08/17 04:45:59;;;;;;;6.78;6.25;;;19.60;99.90;;;;;;4953660;28;20019;-47
2022/08/17 04:48:27;;;;;;;7.28;6.57;;;19.60;99.90;;;;;;4952541;29;20029;-49
2022/08/17 04:50:52;;;;;;;7.43;6.30;;;19.60;99.90;;;;;;4953896;28;20408;-46
2022/08/17 04:53:18;;;;;;;7.43;6.25;;;19.70;99.90;;;;;;4953349;28;20028;-49
2022/08/17 04:55:44;;;;;;;9.23;6.10;;;19.70;99.90;;;;;;4953577;28;20033;-49
2022/08/17 04:58:10;;;;;;;8.93;5.70;;;19.70;99.90;;;;;;4953670;28;20478;-48
2022/08/17 05:00:37;;;;;;;11.23;6.00;;;19.70;99.90;;;;;;4953484;29;20067;-50
2022/08/17 05:03:03;;;;;;;7.75;6.55;;;19.80;99.90;;;;;;4953328;28;20468;-46
2022/08/17 05:05:32;;;;;;;6.82;6.18;;;19.80;99.90;;;;;;4953507;28;20031;-49
2022/08/17 05:07:59;;;;;;;6.57;5.30;;;20.00;99.90;;;;;;4953397;28;20105;-47
2022/08/17 05:10:27;;;;;;;6.13;5.55;;;20.10;99.90;;;;;;4953340;28;20038;-49
2022/08/17 05:13:03;;;;;;;17.48;6.50;;;20.20;99.90;;;;;;4952985;28;20031;-49
2022/08/17 05:15:30;;;;;;;6.50;5.90;;;20.40;99.90;;;;;;4953431;28;20035;-47
2022/08/17 05:17:55;;;;;;;9.70;6.57;;;20.50;99.90;;;;;;4953635;28;20397;-50
2022/08/17 05:20:22;;;;;;;6.53;5.93;;;20.60;99.90;;;;;;4953374;29;20023;-47
2022/08/17 05:22:53;;;;;;;6.78;5.53;;;20.60;99.90;;;;;;4953129;28;20493;-48
2022/08/17 05:25:25;;;;;;;5.78;5.35;;;20.60;99.90;;;;;;4953342;28;20046;-48
2022/08/17 05:27:52;;;;;;;8.93;5.68;;;20.60;99.90;;;;;;4953247;28;20047;-51
2022/08/17 05:30:17;;;;;;;6.38;5.05;;;20.70;99.90;;;;;;4953185;28;20401;-47
2022/08/17 05:32:52;;;;;;;7.20;5.88;;;20.90;99.90;;;;;;4952811;29;20082;-49
2022/08/17 05:35:18;;;;;;;11.60;5.47;;;21.00;99.90;;;;;;4951949;29;20066;-48
2022/08/17 05:37:43;;;;;;;5.80;5.18;;;21.30;99.90;;;;;;4953025;29;20067;-49
2022/08/17 05:40:09;;;;;;;8.43;4.85;;;22.00;99.90;;;;;;4953000;29;20037;-48
2022/08/17 05:42:35;;;;;;;6.05;5.07;;;22.90;99.90;;;;;;4952940;29;20058;-51
2022/08/17 05:45:00;;;;;;;4.75;4.35;;;23.50;99.90;;;;;;4953011;28;20103;-47
2022/08/17 05:47:27;;;;;;;6.05;5.13;;;23.90;99.40;;;;;;4953235;29;20078;-49
2022/08/17 05:49:53;;;;;;;4.95;4.53;;;24.10;99.00;;;;;;4953145;28;20498;-51
2022/08/17 05:52:48;;;;;;;10.27;4.68;;;23.90;99.10;;;;;;4952641;28;20030;-50
2022/08/17 05:55:14;;;;;;;8.07;4.88;;;23.90;99.20;;;;;;4956720;28;20034;-48
2022/08/17 05:57:42;;;;;;;8.98;5.13;;;23.60;99.70;;;;;;4956563;29;20401;-46
2022/08/17 06:00:37;;;;;;;5.47;5.03;;;23.30;99.60;;;;;;4957265;28;20027;-50
2022/08/17 06:03:21;;;;;;;6.53;4.57;;;23.00;99.90;;;;;;4954824;29;20027;-48
2022/08/17 06:06:17;;;;;;;9.02;5.07;;;22.80;99.90;;;;;;4956197;29;20605;-50
2022/08/17 06:09:34;;;;;;;7.18;6.18;;;22.60;99.90;;;;;;4947715;29;20037;-52
2022/08/17 06:12:37;;;;;;;9.40;6.00;;;22.50;99.90;;;;;;4898165;29;20405;-50
2022/08/17 06:15:25;;;;;;;5.72;5.25;;;22.30;99.90;;;;;;4956405;28;20043;-50
2022/08/17 06:18:00;;;;;;;10.25;5.68;;;22.20;99.90;;;;;;4955567;28;20031;-47
2022/08/17 06:20:43;;;;;;;9.38;5.93;;;22.10;99.90;;;;;;4955745;28;20047;-49
2022/08/17 06:23:13;;;;;;;9.25;5.85;;;22.00;99.90;;;;;;4955431;28;20047;-49
2022/08/17 06:25:46;;;;;;;14.75;6.78;;;21.90;99.90;;;;;;4956214;28;20023;-50
2022/08/17 06:28:15;;;;;;;10.35;6.07;;;21.90;99.90;;;;;;4951735;28;20075;-50
2022/08/17 06:30:47;;;;;;;9.70;6.60;;;21.90;99.90;;;;;;4961318;28;20027;-47
2022/08/17 06:33:22;;;;;;;11.23;6.63;;;21.80;99.90;;;;;;4955140;28;20558;-53
2022/08/17 06:35:53;;;;;;;;;;;21.80;99.90;;;;;;4956481;28;20035;-50
2022/08/17 06:38:40;;;;;;;9.73;6.88;;;21.60;99.90;;;;;;4956329;28;19913;-52
2022/08/17 06:41:23;;;;;;;12.38;7.20;;;21.50;99.90;;;;;;4956035;28;20062;-49
2022/08/17 06:44:05;;;;;;;15.23;7.88;;;21.40;99.90;;;;;;4955618;28;20118;-50
2022/08/17 06:46:37;;;;;;;10.18;8.48;;;21.40;99.90;;;;;;4955746;29;20050;-47
2022/08/17 06:49:25;;;;;;;12.70;7.82;;;21.20;99.90;;;;;;4955842;28;20115;-51
2022/08/17 06:52:11;;;;;;;13.07;6.78;;;21.10;99.90;;;;;;4955666;28;20113;-49
2022/08/17 06:54:58;;;;;;;10.27;7.57;;;21.10;99.90;;;;;;4955725;28;20026;-47
2022/08/17 06:57:27;;;;;;;12.45;7.43;;;21.10;99.90;;;;;;4955852;28;20027;-50
2022/08/17 07:00:00;;;;;;;9.02;7.38;;;21.00;99.90;;;;;;4955667;28;20058;-49
2022/08/17 07:02:44;;;;;;;10.07;7.05;;;21.00;99.90;;;;;;4955522;28;20042;-48
2022/08/17 07:05:12;;;;;;;15.57;7.20;;;21.00;99.90;;;;;;4955152;28;20033;-53
2022/08/17 07:10:24;;;;;;;9.48;8.27;;;21.00;99.90;;;;;;4955558;29;20085;-49
2022/08/17 07:12:53;;;;;;;9.45;7.93;;;20.90;99.90;;;;;;4955281;28;20071;-49
2022/08/17 07:15:25;;;;;;;13.23;8.38;;;20.90;99.90;;;;;;4955630;28;20031;-48
2022/08/17 07:17:51;;;;;;;13.50;8.02;;;21.00;99.90;;;;;;4955482;28;20084;-51
2022/08/17 07:20:21;;;;;;;13.77;7.35;;;21.00;99.90;;;;;;4955431;29;20427;-49
2022/08/17 07:23:07;;;;;;;10.35;7.75;;;21.00;99.90;;;;;;4955029;28;20047;-48
2022/08/17 07:25:33;;;;;;;9.57;8.35;;;21.00;99.90;;;;;;4954420;29;20034;-48
2022/08/17 07:28:02;;;;;;;13.43;7.60;;;21.00;99.90;;;;;;4955538;28;20086;-50
2022/08/17 07:30:39;;;;;;;9.82;7.25;;;21.00;99.90;;;;;;4955120;28;20086;-48
2022/08/17 07:33:21;;;;;;;10.57;7.15;;;21.10;99.90;;;;;;4953374;28;20035;-48
2022/08/17 07:35:48;;;;;;;8.65;7.63;;;21.10;99.90;;;;;;4955065;28;20031;-53
2022/08/17 07:38:21;;;;;;;7.75;7.03;;;21.10;99.90;;;;;;4955098;28;20027;-49
2022/08/17 07:41:04;;;;;;;9.23;8.25;;;21.10;99.90;;;;;;4955767;29;20330;-48
2022/08/17 07:43:39;;;;;;;13.73;8.40;;;21.10;99.90;;;;;;4954504;28;20433;-47
2022/08/17 07:49:38;;;;;;;10.13;7.05;;;21.20;99.90;;;;;;4895440;29;20035;-53
2022/08/17 07:52:07;;;;;;;11.35;7.70;;;21.10;99.90;;;;;;4952707;29;20362;-51
2022/08/17 07:54:37;;;;;;;14.75;7.88;;;21.10;99.90;;;;;;4953792;28;20102;-52
2022/08/17 07:57:14;;;;;;;9.35;6.90;;;21.10;99.90;;;;;;4954652;28;20029;-48
2022/08/17 07:59:42;;;;;;;8.65;7.10;;;21.10;99.90;;;;;;4952446;28;20106;-49
2022/08/17 08:02:23;;;;;;;9.15;8.20;;;21.10;99.90;;;;;;4954184;28;20035;-46
2022/08/17 08:05:00;;;;;;;16.52;7.93;;;21.00;99.90;;;;;;4954537;28;20066;-51
2022/08/17 08:07:33;;;;;;;10.70;7.13;;;21.10;99.90;;;;;;4945195;29;20054;-50
2022/08/17 08:10:12;;;;;;;13.32;8.27;;;21.00;99.90;;;;;;4954354;28;20027;-54
2022/08/17 08:12:46;;;;;;;16.65;8.45;;;21.00;99.90;;;;;;4953936;28;20115;-48
2022/08/17 08:15:19;;;;;;;14.27;8.27;;;20.90;99.90;;;;;;4954098;28;20070;-48
2022/08/17 08:18:17;;;;;;;14.90;9.35;;;20.90;99.90;;;;;;4954439;28;20066;-55
2022/08/17 08:20:48;;;;;;;11.43;8.70;;;20.90;99.90;;;;;;4954702;28;20021;-51
2022/08/17 08:23:38;;;;;;;10.07;7.93;;;21.00;99.90;;;;;;4955520;28;20392;-54
2022/08/17 08:26:22;;;;;;;16.85;9.05;;;21.10;99.90;;;;;;4954486;29;20015;-54
2022/08/17 08:29:14;;;;;;;16.02;7.93;;;21.20;99.90;;;;;;4968009;28;20030;-55
2022/08/17 08:32:02;;;;;;;12.25;8.10;;;21.10;99.90;;;;;;4955469;28;20027;-50
2022/08/17 08:34:42;;;;;;;10.13;7.53;;;21.20;99.90;;;;;;4956054;28;20027;-58
2022/08/17 08:37:13;;;;;;;10.80;7.32;;;21.20;99.90;;;;;;4973800;28;20034;-55
2022/08/17 08:39:57;;;;;;;7.30;6.60;;;21.30;99.90;;;;;;4957311;28;20027;-53
2022/08/17 08:42:39;;;;;;;12.43;7.30;;;21.30;99.90;;;;;;4957049;29;20110;-54
2022/08/17 08:45:34;;;;;;;14.52;8.05;;;21.40;99.90;;;;;;4967676;28;20037;-53
2022/08/17 08:48:33;;;;;;;12.18;8.07;;;21.40;99.90;;;;;;4961144;28;20465;-53
2022/08/17 08:51:28;;;;;;;12.60;9.10;;;21.30;99.90;;;;;;4955283;29;20090;-52
2022/08/17 08:54:25;;;;;;;9.63;8.73;;;21.40;99.90;;;;;;4943061;29;20362;-52
2022/08/17 08:56:53;;;;;;;10.93;9.38;;;21.40;99.90;;;;;;4955195;28;20027;-53
2022/08/17 08:59:55;;;;;;;12.63;8.27;;;21.50;99.90;;;;;;4954462;28;20440;-47
2022/08/17 09:02:49;;;;;;;11.60;7.85;;;21.60;99.90;;;;;;4936009;29;20027;-54
2022/08/17 09:05:55;;;;;;;10.45;8.50;;;21.60;99.90;;;;;;4936174;29;20405;-51
2022/08/17 09:08:26;;;;;;;13.05;8.98;;;21.60;99.90;;;;;;4935960;29;20465;-49
2022/08/17 09:11:21;;;;;;;10.05;9.23;;;21.60;99.90;;;;;;4936134;29;20087;-52
2022/08/17 09:14:08;;;;;;;21.73;10.17;;;21.70;99.90;;;;;;4936056;29;20504;-50
2022/08/17 09:16:43;;;;;;;9.82;8.82;;;21.70;99.90;;;;;;4935728;29;20298;-48
2022/08/17 09:19:11;;;;;;;14.35;9.77;;;21.70;99.90;;;;;;4963992;28;20031;-54
2022/08/17 09:22:09;;;;;;;11.82;8.90;;;21.70;99.90;;;;;;4971760;28;20047;-55
2022/08/17 09:24:42;;;;;;;17.77;8.45;;;21.70;99.90;;;;;;4963211;28;20023;-51
2022/08/17 09:27:17;;;;;;;7.15;6.47;;;21.70;99.90;;;;;;4953901;28;20030;-47
2022/08/17 09:29:52;;;;;;;10.88;8.25;;;21.80;99.90;;;;;;4958457;28;20027;-57
2022/08/17 09:32:35;;;;;;;16.70;10.02;;;21.90;99.90;;;;;;4958732;28;20031;-46
2022/08/17 09:35:07;;;;;;;9.23;6.85;;;22.10;99.90;;;;;;4959858;28;20065;-55
2022/08/17 09:37:48;;;;;;;19.80;9.00;;;22.20;99.90;;;;;;4961462;29;20034;-54
2022/08/17 09:40:22;;;;;;;10.70;8.50;;;22.20;99.90;;;;;;4959271;29;20030;-55
2022/08/17 09:43:00;;;;;;;10.55;8.90;;;22.40;99.90;;;;;;4960697;28;20034;-47
2022/08/17 09:45:30;;;;;;;10.88;7.80;;;22.50;99.90;;;;;;4948900;28;20564;-58
2022/08/17 09:48:13;;;;;;;11.85;8.75;;;22.60;99.90;;;;;;4939752;29;20059;-50
2022/08/17 09:50:44;;;;;;;11.43;8.18;;;22.80;99.90;;;;;;4937819;29;20032;-47
2022/08/17 09:53:10;;;;;;;12.80;8.68;;;22.90;99.90;;;;;;4937223;29;20078;-51
2022/08/17 09:56:04;;;;;;;14.18;8.68;;;23.10;99.90;;;;;;4942661;29;20028;-53
2022/08/17 09:58:58;;;;;;;9.13;7.43;;;23.30;99.90;;;;;;4939258;29;20489;-47
2022/08/17 10:01:43;;;;;;;8.50;7.68;;;23.30;99.90;;;;;;4938702;29;20019;-49
2022/08/17 10:04:12;;;;;;;16.80;8.25;;;23.40;99.90;;;;;;4938811;29;20489;-52
2022/08/17 10:07:05;;;;;;;9.70;6.97;;;23.60;99.90;;;;;;4939940;29;20497;-51
2022/08/17 10:09:33;;;;;;;8.90;7.97;;;23.60;99.90;;;;;;4939819;29;20019;-54
2022/08/17 10:12:19;;;;;;;9.85;8.23;;;23.70;99.90;;;;;;4939411;29;20024;-52
2022/08/17 10:15:14;;;;;;;13.27;8.45;;;23.90;99.90;;;;;;4939234;29;20106;-47
2022/08/17 10:17:45;;;;;;;7.67;6.17;;;24.20;99.90;;;;;;4937285;29;20090;-45
2022/08/17 10:20:21;;;;;;;10.23;6.80;;;24.30;99.90;;;;;;4937659;29;20028;-54
2022/08/17 10:28:37;;;;;;;6.68;6.10;;;24.80;99.90;;;;;;4975400;28;20023;-45
2022/08/17 10:31:05;;;;;;;7.47;5.85;;;25.00;99.90;;;;;;4974390;28;20042;-45
2022/08/17 10:33:47;;;;;;;9.23;6.32;;;25.30;99.90;;;;;;4975151;28;20054;-47
2022/08/17 10:36:42;;;;;;;9.15;6.78;;;25.30;99.10;;;;;;4960819;28;20038;-51
2022/08/17 10:39:23;;;;;;;8.32;5.60;;;25.40;99.00;;;;;;4964463;28;20174;-50
2022/08/17 10:41:54;;;;;;;13.00;6.07;;;25.20;98.90;;;;;;4975096;28;20484;-45
2022/08/17 10:44:43;;;;;;;6.90;6.20;;;24.90;99.30;;;;;;4956328;28;20038;-42
2022/08/17 10:47:12;;;;;;;9.02;5.75;;;24.70;99.60;;;;;;4955739;28;20031;-47
2022/08/17 10:49:52;;;;;;;8.50;6.60;;;24.40;99.90;;;;;;4956509;28;20031;-45
2022/08/17 10:52:26;;;;;;;13.02;7.07;;;24.20;99.90;;;;;;4955318;28;20118;-49
2022/08/17 10:54:55;;;;;;;8.73;6.32;;;24.10;99.90;;;;;;4955474;29;20012;-44
2022/08/17 10:57:32;;;;;;;8.25;7.38;;;23.90;99.90;;;;;;4955700;28;20031;-48
2022/08/17 11:00:07;;;;;;;14.90;9.25;;;23.90;99.90;;;;;;4944747;28;20027;-48
2022/08/17 11:02:49;;;;;;;12.02;7.07;;;23.80;99.90;;;;;;4953786;29;20178;-48
2022/08/17 11:05:24;;;;;;;10.00;7.50;;;23.70;99.90;;;;;;4955218;28;20063;-49
2022/08/17 11:08:21;;;;;;;10.40;6.95;;;23.70;99.90;;;;;;4955757;28;20024;-48
2022/08/17 11:11:22;;;;;;;10.23;7.53;;;23.60;99.90;;;;;;4956194;28;20043;-47
2022/08/17 11:13:56;;;;;;;11.68;7.53;;;23.70;99.90;;;;;;4956529;28;20027;-43
2022/08/17 11:16:36;;;;;;;12.40;7.75;;;23.70;99.90;;;;;;4955758;28;20027;-48
2022/08/17 11:19:08;;;;;;;8.32;7.03;;;23.70;99.90;;;;;;4955114;28;20076;-47
2022/08/17 11:22:16;;;;;;;9.77;7.38;;;23.80;99.90;;;;;;4954471;28;20031;-46
2022/08/17 11:24:47;;;;;;;17.00;9.48;;;23.90;99.90;;;;;;4954946;29;20429;-44
2022/08/17 11:27:27;;;;;;;15.50;8.60;;;24.20;99.90;;;;;;4954284;28;20464;-46
2022/08/17 11:29:56;;;;;;;15.85;9.35;;;24.30;99.90;;;;;;4955483;28;20377;-45
2022/08/17 11:32:45;;;;;;;15.30;9.07;;;24.50;99.90;;;;;;4956086;28;20489;-44
2022/08/17 11:35:30;;;;;;;10.65;8.13;;;24.70;99.90;;;;;;4955000;28;20038;-45
2022/08/17 11:37:57;;;;;;;13.03;7.23;;;24.90;99.90;;;;;;4955072;28;20444;-44
2022/08/17 11:40:32;;;;;;;9.70;7.25;;;25.00;99.90;;;;;;4955563;28;20098;-49
2022/08/17 11:43:27;;;;;;;13.75;11.52;;;25.20;99.70;;;;;;4954733;28;20401;-50
2022/08/17 11:46:05;;;;;;;22.13;16.00;;;25.20;99.90;;;;;;4955587;28;20442;-44
2022/08/17 11:51:59;;;;;;;12.65;6.32;;;25.30;99.90;;;;;;4955016;28;20082;-48
2022/08/17 11:54:31;;;;;;;7.20;5.35;;;25.50;99.70;;;;;;4955276;28;20057;-45
2022/08/17 11:57:20;;;;;;;9.88;5.70;;;25.50;99.90;;;;;;4954941;28;20118;-48
2022/08/17 11:59:46;;;;;;;8.88;5.63;;;25.50;99.50;;;;;;4954878;28;20019;-42
2022/08/17 12:02:29;;;;;;;8.85;5.30;;;25.60;99.10;;;;;;4954298;28;20024;-43
2022/08/17 12:05:08;;;;;;;10.75;5.35;;;25.70;98.90;;;;;;4954674;28;20031;-44
2022/08/17 12:07:41;;;;;;;7.28;5.97;;;25.80;98.40;;;;;;4954646;28;20031;-48
2022/08/17 12:10:10;;;;;;;7.45;5.57;;;25.70;98.90;;;;;;4954817;28;20098;-43
2022/08/17 12:12:42;;;;;;;12.10;5.13;;;25.70;98.80;;;;;;4954880;28;20106;-42
2022/08/17 12:15:16;;;;;;;8.50;4.80;;;25.70;99.30;;;;;;4953101;28;20094;-44
2022/08/17 12:17:52;;;;;;;7.72;4.32;;;25.80;98.50;;;;;;4954642;28;20485;-44
2022/08/17 12:20:33;;;;;;;10.48;4.63;;;25.70;97.70;;;;;;4953934;28;20038;-43
2022/08/17 12:23:29;;;;;;;5.55;4.57;;;25.70;97.80;;;;;;4952805;29;20657;-47
2022/08/17 12:26:01;;;;;;;8.88;4.63;;;25.70;98.10;;;;;;4954908;28;20039;-46
2022/08/17 12:28:30;;;;;;;8.88;4.78;;;25.60;98.20;;;;;;4954336;28;20382;-43
2022/08/17 12:31:10;;;;;;;4.97;4.40;;;25.70;98.30;;;;;;4954221;28;20072;-46
2022/08/17 12:33:41;;;;;;;6.35;4.28;;;25.80;98.10;;;;;;4955171;28;20039;-43
2022/08/17 12:36:13;;;;;;;4.28;3.80;;;25.70;98.20;;;;;;4954580;28;20027;-45
2022/08/17 12:38:40;;;;;;;5.05;4.18;;;25.70;97.70;;;;;;4954222;28;20027;-44
2022/08/17 12:41:27;;;;;;;9.10;4.97;;;25.60;97.30;;;;;;4954085;28;20394;-49
2022/08/17 12:44:13;;;;;;;6.65;4.00;;;25.70;97.20;;;;;;4953579;28;20512;-48
2022/08/17 12:46:55;;;;;;;5.20;3.30;;;25.80;97.00;;;;;;4952626;28;20031;-42
2022/08/17 12:49:22;;;;;;;4.78;3.03;;;25.90;96.30;;;;;;4954090;28;20444;-48
2022/08/17 12:51:49;;;;;;;7.57;3.80;;;26.10;96.10;;;;;;4953598;28;20031;-41
2022/08/17 12:54:53;;;;;;;4.32;3.92;;;26.30;95.50;;;;;;4953565;28;20027;-46
2022/08/17 12:57:32;;;;;;;9.75;3.60;;;26.30;95.30;;;;;;4953676;28;20059;-43
2022/08/17 13:00:11;;;;;;;5.70;3.30;;;26.30;95.30;;;;;;4953558;28;20077;-43
2022/08/17 13:02:59;;;;;;;5.50;3.83;;;26.30;95.30;;;;;;4953234;28;20032;-43
2022/08/17 13:05:28;;;;;;;5.75;3.42;;;26.30;95.50;;;;;;4950488;29;20039;-49
2022/08/17 13:07:56;;;;;;;3.92;3.47;;;26.30;95.10;;;;;;4953736;28;20548;-47
2022/08/17 13:10:34;;;;;;;6.38;3.85;;;26.30;95.20;;;;;;4953745;28;20054;-46
2022/08/17 13:13:04;;;;;;;5.20;3.53;;;26.30;95.20;;;;;;4953542;28;20457;-42
2022/08/17 13:15:42;;;;;;;4.15;3.08;;;26.20;95.10;;;;;;4953955;28;20023;-46
2022/08/17 13:18:42;;;;;;;5.47;3.53;;;26.20;95.50;;;;;;4953556;28;20105;-49
2022/08/17 13:21:20;;;;;;;5.30;3.63;;;26.30;95.40;;;;;;4952890;28;20090;-47
2022/08/17 13:24:07;;;;;;;4.40;4.10;;;26.30;95.00;;;;;;4953158;28;20020;-47
2022/08/17 13:26:37;;;;;;;4.70;4.22;;;26.30;95.20;;;;;;4953371;28;20035;-46
2022/08/17 13:29:06;;;;;;;7.45;3.42;;;26.30;95.30;;;;;;4953136;28;20027;-43
2022/08/17 13:31:39;;;;;;;6.82;5.10;;;26.30;95.20;;;;;;4952957;28;20491;-45
2022/08/17 13:34:23;;;;;;;7.28;4.13;;;26.40;95.20;;;;;;4953110;28;20098;-47
2022/08/17 13:36:51;;;;;;;5.75;3.80;;;26.40;95.00;;;;;;4953246;28;20035;-44
2022/08/17 13:39:23;;;;;;;5.10;3.72;;;26.50;94.80;;;;;;4953452;28;20246;-45
2022/08/17 13:41:52;;;;;;;8.40;4.75;;;26.50;95.10;;;;;;4953187;28;20035;-41
2022/08/17 13:44:36;;;;;;;8.13;3.83;;;26.60;95.10;;;;;;4952147;28;20027;-45
2022/08/17 13:47:13;;;;;;;5.60;3.70;;;26.80;94.50;;;;;;4953981;28;20114;-47